sensor_id;sensor_type;location;lat;lon;timestamp;temperature;humidity
42135;DHT22;28312;43.460;11.810;2023-03-24T00:00:10;10.80;61.10
42135;DHT22;28312;43.460;11.810;2023-03-24T00:04:15;10.70;61.60
42135;DHT22;28312;43.460;11.810;2023-03-24T00:08:20;10.70;61.50
42135;DHT22;28312;43.460;11.810;2023-03-24T00:12:24;10.60;61.40
42135;DHT22;28312;43.460;11.810;2023-03-24T00:16:28;10.40;61.40
42135;DHT22;28312;43.460;11.810;2023-03-24T00:20:32;10.30;61.40
42135;DHT22;28312;43.460;11.810;2023-03-24T00:24:36;10.20;61.40
42135;DHT22;28312;43.460;11.810;2023-03-24T00:28:42;10.10;61.60
42135;DHT22;28312;43.460;11.810;2023-03-24T00:32:46;10.00;61.80
42135;DHT22;28312;43.460;11.810;2023-03-24T00:36:50;9.90;61.90
42135;DHT22;28312;43.460;11.810;2023-03-24T00:40:54;9.80;61.90
42135;DHT22;28312;43.460;11.810;2023-03-24T00:44:58;9.70;61.80
42135;DHT22;28312;43.460;11.810;2023-03-24T00:49:05;9.60;61.90
42135;DHT22;28312;43.460;11.810;2023-03-24T00:53:15;9.50;62.10
42135;DHT22;28312;43.460;11.810;2023-03-24T00:57:19;9.20;61.90
42135;DHT22;28312;43.460;11.810;2023-03-24T01:01:26;8.90;62.30
42135;DHT22;28312;43.460;11.810;2023-03-24T01:05:31;8.70;62.50
42135;DHT22;28312;43.460;11.810;2023-03-24T01:09:36;8.60;62.60
42135;DHT22;28312;43.460;11.810;2023-03-24T01:13:40;8.50;62.60
42135;DHT22;28312;43.460;11.810;2023-03-24T01:17:44;8.50;62.60
42135;DHT22;28312;43.460;11.810;2023-03-24T01:21:49;8.50;62.60
42135;DHT22;28312;43.460;11.810;2023-03-24T01:25:53;8.40;62.90
42135;DHT22;28312;43.460;11.810;2023-03-24T01:30:01;8.50;63.00
42135;DHT22;28312;43.460;11.810;2023-03-24T01:34:05;8.50;63.20
42135;DHT22;28312;43.460;11.810;2023-03-24T01:38:10;8.50;63.20
42135;DHT22;28312;43.460;11.810;2023-03-24T01:42:23;8.50;63.40
42135;DHT22;28312;43.460;11.810;2023-03-24T01:46:27;8.60;63.60
42135;DHT22;28312;43.460;11.810;2023-03-24T01:50:32;8.60;63.40
42135;DHT22;28312;43.460;11.810;2023-03-24T01:54:37;8.60;63.70
42135;DHT22;28312;43.460;11.810;2023-03-24T01:58:49;8.60;63.60
42135;DHT22;28312;43.460;11.810;2023-03-24T02:03:16;8.50;63.60
42135;DHT22;28312;43.460;11.810;2023-03-24T02:07:31;8.30;63.30
42135;DHT22;28312;43.460;11.810;2023-03-24T02:11:37;8.20;63.20
42135;DHT22;28312;43.460;11.810;2023-03-24T02:16:01;8.10;63.20
42135;DHT22;28312;43.460;11.810;2023-03-24T02:20:29;8.00;63.20
42135;DHT22;28312;43.460;11.810;2023-03-24T02:33:53;7.90;63.40
42135;DHT22;28312;43.460;11.810;2023-03-24T02:42:25;7.80;63.80
42135;DHT22;28312;43.460;11.810;2023-03-24T02:46:48;7.80;63.90
42135;DHT22;28312;43.460;11.810;2023-03-24T02:55:37;7.80;64.10
42135;DHT22;28312;43.460;11.810;2023-03-24T02:59:55;7.80;64.20
42135;DHT22;28312;43.460;11.810;2023-03-24T03:04:53;7.80;64.70
42135;DHT22;28312;43.460;11.810;2023-03-24T03:09:04;7.70;65.10
42135;DHT22;28312;43.460;11.810;2023-03-24T03:17:44;7.80;65.00
42135;DHT22;28312;43.460;11.810;2023-03-24T03:21:53;7.80;64.90
42135;DHT22;28312;43.460;11.810;2023-03-24T03:26:00;7.80;64.80
42135;DHT22;28312;43.460;11.810;2023-03-24T03:30:15;7.80;64.70
42135;DHT22;28312;43.460;11.810;2023-03-24T03:34:34;7.80;64.80
42135;DHT22;28312;43.460;11.810;2023-03-24T03:43:02;7.70;64.90
42135;DHT22;28312;43.460;11.810;2023-03-24T03:47:07;7.60;64.90
42135;DHT22;28312;43.460;11.810;2023-03-24T03:51:16;7.50;65.00
42135;DHT22;28312;43.460;11.810;2023-03-24T03:55:29;7.50;65.00
42135;DHT22;28312;43.460;11.810;2023-03-24T03:59:35;7.40;65.10
42135;DHT22;28312;43.460;11.810;2023-03-24T04:08:48;7.40;65.20
42135;DHT22;28312;43.460;11.810;2023-03-24T04:13:36;7.40;65.00
42135;DHT22;28312;43.460;11.810;2023-03-24T04:18:05;7.00;64.90
42135;DHT22;28312;43.460;11.810;2023-03-24T04:23:03;6.70;65.20
42135;DHT22;28312;43.460;11.810;2023-03-24T04:27:19;6.60;65.10
42135;DHT22;28312;43.460;11.810;2023-03-24T04:31:36;6.40;65.20
42135;DHT22;28312;43.460;11.810;2023-03-24T04:35:49;6.20;65.40
42135;DHT22;28312;43.460;11.810;2023-03-24T04:40:16;6.00;65.40
42135;DHT22;28312;43.460;11.810;2023-03-24T04:44:21;5.90;65.60
42135;DHT22;28312;43.460;11.810;2023-03-24T04:48:53;5.80;65.30
42135;DHT22;28312;43.460;11.810;2023-03-24T04:53:09;5.70;65.20
42135;DHT22;28312;43.460;11.810;2023-03-24T04:57:14;5.70;65.30
42135;DHT22;28312;43.460;11.810;2023-03-24T05:01:21;5.60;65.40
42135;DHT22;28312;43.460;11.810;2023-03-24T05:05:47;5.40;65.50
42135;DHT22;28312;43.460;11.810;2023-03-24T05:09:51;5.20;65.70
42135;DHT22;28312;43.460;11.810;2023-03-24T05:13:55;5.20;65.90
42135;DHT22;28312;43.460;11.810;2023-03-24T05:17:59;5.10;66.00
42135;DHT22;28312;43.460;11.810;2023-03-24T05:22:03;5.00;66.20
42135;DHT22;28312;43.460;11.810;2023-03-24T05:26:06;5.00;66.40
42135;DHT22;28312;43.460;11.810;2023-03-24T05:30:21;5.10;66.50
42135;DHT22;28312;43.460;11.810;2023-03-24T05:34:30;5.10;66.50
42135;DHT22;28312;43.460;11.810;2023-03-24T05:38:43;5.10;66.60
42135;DHT22;28312;43.460;11.810;2023-03-24T05:42:48;5.20;66.70
42135;DHT22;28312;43.460;11.810;2023-03-24T05:46:54;5.20;66.90
42135;DHT22;28312;43.460;11.810;2023-03-24T05:50:59;5.30;67.00
42135;DHT22;28312;43.460;11.810;2023-03-24T05:55:03;5.50;67.40
42135;DHT22;28312;43.460;11.810;2023-03-24T05:59:07;5.80;67.60
42135;DHT22;28312;43.460;11.810;2023-03-24T06:03:29;6.20;67.60
42135;DHT22;28312;43.460;11.810;2023-03-24T06:07:41;6.70;67.70
42135;DHT22;28312;43.460;11.810;2023-03-24T06:11:44;7.10;67.70
42135;DHT22;28312;43.460;11.810;2023-03-24T06:15:49;7.60;67.80
42135;DHT22;28312;43.460;11.810;2023-03-24T06:20:19;8.10;68.00
42135;DHT22;28312;43.460;11.810;2023-03-24T06:24:39;8.60;67.60
42135;DHT22;28312;43.460;11.810;2023-03-24T06:28:44;8.80;67.20
42135;DHT22;28312;43.460;11.810;2023-03-24T06:32:52;9.10;67.40
42135;DHT22;28312;43.460;11.810;2023-03-24T06:36:56;9.60;68.00
42135;DHT22;28312;43.460;11.810;2023-03-24T06:41:03;10.10;67.70
42135;DHT22;28312;43.460;11.810;2023-03-24T06:45:09;10.70;67.70
42135;DHT22;28312;43.460;11.810;2023-03-24T06:49:13;11.50;66.80
42135;DHT22;28312;43.460;11.810;2023-03-24T06:53:17;12.00;65.60
42135;DHT22;28312;43.460;11.810;2023-03-24T06:57:21;12.10;65.50
42135;DHT22;28312;43.460;11.810;2023-03-24T07:01:47;12.20;65.90
42135;DHT22;28312;43.460;11.810;2023-03-24T07:05:58;12.40;65.90
42135;DHT22;28312;43.460;11.810;2023-03-24T07:10:04;12.50;65.80
42135;DHT22;28312;43.460;11.810;2023-03-24T07:14:11;12.70;66.30
42135;DHT22;28312;43.460;11.810;2023-03-24T07:18:16;12.90;65.00
42135;DHT22;28312;43.460;11.810;2023-03-24T07:22:28;12.70;64.90
42135;DHT22;28312;43.460;11.810;2023-03-24T07:26:52;12.70;65.20
42135;DHT22;28312;43.460;11.810;2023-03-24T07:31:02;12.70;65.60
42135;DHT22;28312;43.460;11.810;2023-03-24T07:35:09;12.70;65.90
42135;DHT22;28312;43.460;11.810;2023-03-24T07:39:13;13.10;65.80
42135;DHT22;28312;43.460;11.810;2023-03-24T07:43:17;13.40;65.90
42135;DHT22;28312;43.460;11.810;2023-03-24T07:47:22;13.70;65.60
42135;DHT22;28312;43.460;11.810;2023-03-24T07:51:26;13.90;65.50
42135;DHT22;28312;43.460;11.810;2023-03-24T07:55:44;14.20;65.50
42135;DHT22;28312;43.460;11.810;2023-03-24T07:59:54;14.30;65.30
42135;DHT22;28312;43.460;11.810;2023-03-24T08:04:17;14.60;66.10
42135;DHT22;28312;43.460;11.810;2023-03-24T08:08:40;15.10;66.70
42135;DHT22;28312;43.460;11.810;2023-03-24T08:12:44;15.60;66.50
42135;DHT22;28312;43.460;11.810;2023-03-24T08:16:48;16.10;66.00
42135;DHT22;28312;43.460;11.810;2023-03-24T08:20:57;16.60;65.60
42135;DHT22;28312;43.460;11.810;2023-03-24T08:25:01;17.30;65.30
42135;DHT22;28312;43.460;11.810;2023-03-24T08:29:05;17.80;64.30
42135;DHT22;28312;43.460;11.810;2023-03-24T08:33:10;18.20;63.60
42135;DHT22;28312;43.460;11.810;2023-03-24T08:37:14;18.60;63.80
42135;DHT22;28312;43.460;11.810;2023-03-24T08:41:18;19.00;63.50
42135;DHT22;28312;43.460;11.810;2023-03-24T08:45:24;19.40;62.80
42135;DHT22;28312;43.460;11.810;2023-03-24T08:49:30;19.50;62.50
42135;DHT22;28312;43.460;11.810;2023-03-24T08:53:36;19.70;62.70
42135;DHT22;28312;43.460;11.810;2023-03-24T08:57:41;19.70;61.60
42135;DHT22;28312;43.460;11.810;2023-03-24T09:01:44;19.70;62.40
42135;DHT22;28312;43.460;11.810;2023-03-24T09:05:48;20.10;62.30
42135;DHT22;28312;43.460;11.810;2023-03-24T09:09:52;20.50;61.60
42135;DHT22;28312;43.460;11.810;2023-03-24T09:13:55;20.90;61.20
42135;DHT22;28312;43.460;11.810;2023-03-24T09:17:59;21.20;61.10
42135;DHT22;28312;43.460;11.810;2023-03-24T09:22:03;21.50;60.20
42135;DHT22;28312;43.460;11.810;2023-03-24T09:26:06;21.50;60.00
42135;DHT22;28312;43.460;11.810;2023-03-24T09:30:12;21.40;59.70
42135;DHT22;28312;43.460;11.810;2023-03-24T09:34:16;21.60;60.00
42135;DHT22;28312;43.460;11.810;2023-03-24T09:38:19;21.80;59.90
42135;DHT22;28312;43.460;11.810;2023-03-24T09:42:25;22.10;59.40
42135;DHT22;28312;43.460;11.810;2023-03-24T09:47:01;22.30;59.00
42135;DHT22;28312;43.460;11.810;2023-03-24T09:51:26;22.40;58.20
42135;DHT22;28312;43.460;11.810;2023-03-24T09:55:30;22.40;58.80
42135;DHT22;28312;43.460;11.810;2023-03-24T09:59:42;22.70;58.70
42135;DHT22;28312;43.460;11.810;2023-03-24T10:03:49;22.70;57.60
42135;DHT22;28312;43.460;11.810;2023-03-24T10:08:12;22.60;58.40
42135;DHT22;28312;43.460;11.810;2023-03-24T10:12:33;23.00;58.80
42135;DHT22;28312;43.460;11.810;2023-03-24T10:17:02;23.80;58.30
42135;DHT22;28312;43.460;11.810;2023-03-24T10:21:21;24.20;57.70
42135;DHT22;28312;43.460;11.810;2023-03-24T10:30:02;23.60;55.10
42135;DHT22;28312;43.460;11.810;2023-03-24T10:34:11;22.70;55.10
42135;DHT22;28312;43.460;11.810;2023-03-24T10:38:19;21.70;55.70
42135;DHT22;28312;43.460;11.810;2023-03-24T10:42:29;21.00;56.80
42135;DHT22;28312;43.460;11.810;2023-03-24T10:46:48;20.60;57.00
42135;DHT22;28312;43.460;11.810;2023-03-24T10:50:57;20.20;57.30
42135;DHT22;28312;43.460;11.810;2023-03-24T10:55:04;20.10;58.00
42135;DHT22;28312;43.460;11.810;2023-03-24T11:03:35;20.20;58.30
42135;DHT22;28312;43.460;11.810;2023-03-24T11:07:41;20.40;58.40
42135;DHT22;28312;43.460;11.810;2023-03-24T11:11:47;20.50;57.60
42135;DHT22;28312;43.460;11.810;2023-03-24T11:20:34;20.40;57.50
42135;DHT22;28312;43.460;11.810;2023-03-24T11:24:38;20.60;57.40
42135;DHT22;28312;43.460;11.810;2023-03-24T11:28:45;20.70;56.90
42135;DHT22;28312;43.460;11.810;2023-03-24T11:32:49;20.90;56.90
42135;DHT22;28312;43.460;11.810;2023-03-24T11:41:02;21.10;55.70
42135;DHT22;28312;43.460;11.810;2023-03-24T11:45:37;21.10;55.70
42135;DHT22;28312;43.460;11.810;2023-03-24T11:54:16;21.50;55.40
42135;DHT22;28312;43.460;11.810;2023-03-24T11:58:35;21.80;55.50
42135;DHT22;28312;43.460;11.810;2023-03-24T12:03:02;22.30;55.00
42135;DHT22;28312;43.460;11.810;2023-03-24T12:15:50;22.80;53.60
42135;DHT22;28312;43.460;11.810;2023-03-24T12:20:29;23.00;52.90
42135;DHT22;28312;43.460;11.810;2023-03-24T12:25:06;22.90;52.60
42135;DHT22;28312;43.460;11.810;2023-03-24T12:29:22;22.90;52.30
42135;DHT22;28312;43.460;11.810;2023-03-24T12:34:19;23.00;53.00
42135;DHT22;28312;43.460;11.810;2023-03-24T12:38:29;23.10;52.50
42135;DHT22;28312;43.460;11.810;2023-03-24T12:42:42;23.20;52.50
42135;DHT22;28312;43.460;11.810;2023-03-24T12:46:50;23.30;52.20
42135;DHT22;28312;43.460;11.810;2023-03-24T12:55:43;23.10;51.30
42135;DHT22;28312;43.460;11.810;2023-03-24T13:08:22;22.80;51.20
42135;DHT22;28312;43.460;11.810;2023-03-24T13:16:59;22.90;50.00
42135;DHT22;28312;43.460;11.810;2023-03-24T13:21:08;22.60;50.10
42135;DHT22;28312;43.460;11.810;2023-03-24T13:25:32;22.50;50.50
42135;DHT22;28312;43.460;11.810;2023-03-24T13:34:28;22.60;50.40
42135;DHT22;28312;43.460;11.810;2023-03-24T13:38:52;22.70;50.40
42135;DHT22;28312;43.460;11.810;2023-03-24T13:42:58;22.60;50.50
42135;DHT22;28312;43.460;11.810;2023-03-24T13:47:15;22.70;50.60
42135;DHT22;28312;43.460;11.810;2023-03-24T13:51:33;22.60;50.20
42135;DHT22;28312;43.460;11.810;2023-03-24T13:55:47;22.30;50.80
42135;DHT22;28312;43.460;11.810;2023-03-24T14:04:22;21.70;51.20
42135;DHT22;28312;43.460;11.810;2023-03-24T14:08:59;21.80;52.00
42135;DHT22;28312;43.460;11.810;2023-03-24T14:17:16;22.00;51.80
42135;DHT22;28312;43.460;11.810;2023-03-24T14:21:28;22.20;51.70
42135;DHT22;28312;43.460;11.810;2023-03-24T14:25:33;22.20;51.70
42135;DHT22;28312;43.460;11.810;2023-03-24T14:29:46;22.20;51.50
42135;DHT22;28312;43.460;11.810;2023-03-24T14:38:20;21.90;51.30
42135;DHT22;28312;43.460;11.810;2023-03-24T14:42:53;21.40;51.40
42135;DHT22;28312;43.460;11.810;2023-03-24T14:46:58;20.80;52.00
42135;DHT22;28312;43.460;11.810;2023-03-24T14:55:41;20.10;53.00
42135;DHT22;28312;43.460;11.810;2023-03-24T15:00:03;19.80;53.60
42135;DHT22;28312;43.460;11.810;2023-03-24T15:04:14;19.70;54.00
42135;DHT22;28312;43.460;11.810;2023-03-24T15:08:20;19.60;54.70
42135;DHT22;28312;43.460;11.810;2023-03-24T15:12:24;19.60;55.10
42135;DHT22;28312;43.460;11.810;2023-03-24T15:16:30;19.60;55.30
42135;DHT22;28312;43.460;11.810;2023-03-24T15:20:36;19.40;55.40
42135;DHT22;28312;43.460;11.810;2023-03-24T15:24:41;19.20;55.40
42135;DHT22;28312;43.460;11.810;2023-03-24T15:28:44;19.10;55.80
42135;DHT22;28312;43.460;11.810;2023-03-24T15:32:49;18.90;56.10
42135;DHT22;28312;43.460;11.810;2023-03-24T15:36:58;18.90;56.70
42135;DHT22;28312;43.460;11.810;2023-03-24T15:41:08;19.10;57.10
42135;DHT22;28312;43.460;11.810;2023-03-24T15:45:44;19.40;57.10
42135;DHT22;28312;43.460;11.810;2023-03-24T15:50:31;19.60;56.60
42135;DHT22;28312;43.460;11.810;2023-03-24T15:54:39;19.70;56.50
42135;DHT22;28312;43.460;11.810;2023-03-24T15:58:47;19.70;56.50
42135;DHT22;28312;43.460;11.810;2023-03-24T16:02:53;19.60;56.20
42135;DHT22;28312;43.460;11.810;2023-03-24T16:06:57;19.50;56.40
42135;DHT22;28312;43.460;11.810;2023-03-24T16:11:05;19.40;56.20
42135;DHT22;28312;43.460;11.810;2023-03-24T16:15:12;19.10;55.90
42135;DHT22;28312;43.460;11.810;2023-03-24T16:19:16;18.80;55.90
42135;DHT22;28312;43.460;11.810;2023-03-24T16:23:20;18.50;56.30
42135;DHT22;28312;43.460;11.810;2023-03-24T16:27:23;18.30;56.70
42135;DHT22;28312;43.460;11.810;2023-03-24T16:31:29;18.20;57.00
42135;DHT22;28312;43.460;11.810;2023-03-24T16:35:33;18.10;57.40
42135;DHT22;28312;43.460;11.810;2023-03-24T16:39:37;17.90;57.80
42135;DHT22;28312;43.460;11.810;2023-03-24T16:43:41;17.70;58.00
42135;DHT22;28312;43.460;11.810;2023-03-24T16:47:45;17.70;58.30
42135;DHT22;28312;43.460;11.810;2023-03-24T16:51:49;17.50;58.30
42135;DHT22;28312;43.460;11.810;2023-03-24T16:55:55;17.40;58.30
42135;DHT22;28312;43.460;11.810;2023-03-24T16:59:58;17.20;58.40
42135;DHT22;28312;43.460;11.810;2023-03-24T17:04:11;17.10;58.40
42135;DHT22;28312;43.460;11.810;2023-03-24T17:08:16;17.00;58.50
42135;DHT22;28312;43.460;11.810;2023-03-24T17:12:20;16.80;59.20
42135;DHT22;28312;43.460;11.810;2023-03-24T17:16:24;16.70;59.40
42135;DHT22;28312;43.460;11.810;2023-03-24T17:20:28;16.60;60.00
42135;DHT22;28312;43.460;11.810;2023-03-24T17:24:33;16.40;60.10
42135;DHT22;28312;43.460;11.810;2023-03-24T17:28:43;16.20;60.30
42135;DHT22;28312;43.460;11.810;2023-03-24T17:32:47;16.00;60.80
42135;DHT22;28312;43.460;11.810;2023-03-24T17:36:51;15.90;61.40
42135;DHT22;28312;43.460;11.810;2023-03-24T17:40:59;15.70;61.60
42135;DHT22;28312;43.460;11.810;2023-03-24T17:45:04;15.60;62.30
42135;DHT22;28312;43.460;11.810;2023-03-24T17:49:09;15.40;62.80
42135;DHT22;28312;43.460;11.810;2023-03-24T17:53:12;15.30;63.20
42135;DHT22;28312;43.460;11.810;2023-03-24T17:57:18;15.20;63.40
42135;DHT22;28312;43.460;11.810;2023-03-24T18:01:21;15.20;63.50
42135;DHT22;28312;43.460;11.810;2023-03-24T18:05:30;15.10;63.80
42135;DHT22;28312;43.460;11.810;2023-03-24T18:09:35;15.00;64.10
42135;DHT22;28312;43.460;11.810;2023-03-24T18:13:42;14.90;64.10
42135;DHT22;28312;43.460;11.810;2023-03-24T18:17:47;14.80;64.30
42135;DHT22;28312;43.460;11.810;2023-03-24T18:21:52;14.70;64.50
42135;DHT22;28312;43.460;11.810;2023-03-24T18:26:01;14.60;65.00
42135;DHT22;28312;43.460;11.810;2023-03-24T18:30:09;14.60;65.40
42135;DHT22;28312;43.460;11.810;2023-03-24T18:34:13;14.50;65.50
42135;DHT22;28312;43.460;11.810;2023-03-24T18:38:19;14.50;65.60
42135;DHT22;28312;43.460;11.810;2023-03-24T18:42:25;14.30;65.30
42135;DHT22;28312;43.460;11.810;2023-03-24T18:46:29;14.10;65.50
42135;DHT22;28312;43.460;11.810;2023-03-24T18:50:35;13.90;65.70
42135;DHT22;28312;43.460;11.810;2023-03-24T18:54:43;13.70;66.20
42135;DHT22;28312;43.460;11.810;2023-03-24T18:58:47;13.70;66.50
42135;DHT22;28312;43.460;11.810;2023-03-24T19:02:53;13.70;66.60
42135;DHT22;28312;43.460;11.810;2023-03-24T19:06:57;13.60;66.80
42135;DHT22;28312;43.460;11.810;2023-03-24T19:11:03;13.70;67.00
42135;DHT22;28312;43.460;11.810;2023-03-24T19:15:07;13.60;67.10
42135;DHT22;28312;43.460;11.810;2023-03-24T19:19:11;13.60;67.20
42135;DHT22;28312;43.460;11.810;2023-03-24T19:23:15;13.60;67.50
42135;DHT22;28312;43.460;11.810;2023-03-24T19:27:20;13.60;67.70
42135;DHT22;28312;43.460;11.810;2023-03-24T19:31:25;13.60;67.80
42135;DHT22;28312;43.460;11.810;2023-03-24T19:35:30;13.60;67.90
42135;DHT22;28312;43.460;11.810;2023-03-24T19:39:35;13.50;68.00
42135;DHT22;28312;43.460;11.810;2023-03-24T19:43:40;13.60;68.00
42135;DHT22;28312;43.460;11.810;2023-03-24T19:47:43;13.60;67.90
42135;DHT22;28312;43.460;11.810;2023-03-24T19:51:51;13.50;68.00
42135;DHT22;28312;43.460;11.810;2023-03-24T19:55:56;13.60;68.00
42135;DHT22;28312;43.460;11.810;2023-03-24T20:00:00;13.60;68.10
42135;DHT22;28312;43.460;11.810;2023-03-24T20:04:06;13.60;68.10
42135;DHT22;28312;43.460;11.810;2023-03-24T20:08:10;13.50;68.00
42135;DHT22;28312;43.460;11.810;2023-03-24T20:12:13;13.50;67.90
42135;DHT22;28312;43.460;11.810;2023-03-24T20:16:17;13.40;67.70
42135;DHT22;28312;43.460;11.810;2023-03-24T20:20:21;13.30;67.50
42135;DHT22;28312;43.460;11.810;2023-03-24T20:24:25;13.20;67.60
42135;DHT22;28312;43.460;11.810;2023-03-24T20:28:28;13.20;67.50
42135;DHT22;28312;43.460;11.810;2023-03-24T20:32:32;13.20;67.50
42135;DHT22;28312;43.460;11.810;2023-03-24T20:36:36;13.10;67.50
42135;DHT22;28312;43.460;11.810;2023-03-24T20:40:43;13.10;67.50
42135;DHT22;28312;43.460;11.810;2023-03-24T20:44:46;13.10;67.30
42135;DHT22;28312;43.460;11.810;2023-03-24T20:48:50;13.10;67.30
42135;DHT22;28312;43.460;11.810;2023-03-24T20:52:54;13.00;67.30
42135;DHT22;28312;43.460;11.810;2023-03-24T20:56:58;13.10;67.30
42135;DHT22;28312;43.460;11.810;2023-03-24T21:01:06;13.00;67.20
42135;DHT22;28312;43.460;11.810;2023-03-24T21:05:10;13.00;67.00
42135;DHT22;28312;43.460;11.810;2023-03-24T21:09:14;12.90;66.90
42135;DHT22;28312;43.460;11.810;2023-03-24T21:13:17;12.70;66.90
42135;DHT22;28312;43.460;11.810;2023-03-24T21:17:23;12.70;66.90
42135;DHT22;28312;43.460;11.810;2023-03-24T21:21:36;12.70;66.90
42135;DHT22;28312;43.460;11.810;2023-03-24T21:25:40;12.70;66.80
42135;DHT22;28312;43.460;11.810;2023-03-24T21:29:44;12.60;66.80
42135;DHT22;28312;43.460;11.810;2023-03-24T21:33:48;12.60;66.60
42135;DHT22;28312;43.460;11.810;2023-03-24T21:37:52;12.50;66.40
42135;DHT22;28312;43.460;11.810;2023-03-24T21:41:56;12.20;66.40
42135;DHT22;28312;43.460;11.810;2023-03-24T21:46:00;11.90;66.50
42135;DHT22;28312;43.460;11.810;2023-03-24T21:50:07;11.80;66.50
42135;DHT22;28312;43.460;11.810;2023-03-24T21:54:12;11.70;66.70
42135;DHT22;28312;43.460;11.810;2023-03-24T21:58:17;11.60;66.80
42135;DHT22;28312;43.460;11.810;2023-03-24T22:02:21;11.60;67.20
42135;DHT22;28312;43.460;11.810;2023-03-24T22:06:27;11.70;67.50
42135;DHT22;28312;43.460;11.810;2023-03-24T22:10:32;11.70;68.10
42135;DHT22;28312;43.460;11.810;2023-03-24T22:14:39;11.70;68.40
42135;DHT22;28312;43.460;11.810;2023-03-24T22:18:42;11.70;68.90
42135;DHT22;28312;43.460;11.810;2023-03-24T22:22:46;11.60;69.00
42135;DHT22;28312;43.460;11.810;2023-03-24T22:26:49;11.60;69.50
42135;DHT22;28312;43.460;11.810;2023-03-24T22:30:58;11.50;69.70
42135;DHT22;28312;43.460;11.810;2023-03-24T22:35:03;11.50;70.00
42135;DHT22;28312;43.460;11.810;2023-03-24T22:39:08;11.50;70.00
42135;DHT22;28312;43.460;11.810;2023-03-24T22:43:12;11.40;69.90
42135;DHT22;28312;43.460;11.810;2023-03-24T22:47:15;11.40;69.80
42135;DHT22;28312;43.460;11.810;2023-03-24T22:51:19;11.40;69.50
42135;DHT22;28312;43.460;11.810;2023-03-24T22:55:23;11.30;69.40
42135;DHT22;28312;43.460;11.810;2023-03-24T22:59:28;11.20;69.40
42135;DHT22;28312;43.460;11.810;2023-03-24T23:03:34;11.20;69.20
42135;DHT22;28312;43.460;11.810;2023-03-24T23:07:38;11.20;69.20
42135;DHT22;28312;43.460;11.810;2023-03-24T23:11:41;11.20;69.10
42135;DHT22;28312;43.460;11.810;2023-03-24T23:15:47;11.10;69.00
42135;DHT22;28312;43.460;11.810;2023-03-24T23:19:52;11.00;69.00
42135;DHT22;28312;43.460;11.810;2023-03-24T23:23:55;10.90;69.00
42135;DHT22;28312;43.460;11.810;2023-03-24T23:28:01;10.90;69.10
42135;DHT22;28312;43.460;11.810;2023-03-24T23:32:06;10.80;69.10
42135;DHT22;28312;43.460;11.810;2023-03-24T23:36:11;10.80;69.10
42135;DHT22;28312;43.460;11.810;2023-03-24T23:40:20;10.80;69.00
42135;DHT22;28312;43.460;11.810;2023-03-24T23:44:24;10.90;69.00
42135;DHT22;28312;43.460;11.810;2023-03-24T23:48:29;10.90;68.90
42135;DHT22;28312;43.460;11.810;2023-03-24T23:52:33;10.90;68.90
42135;DHT22;28312;43.460;11.810;2023-03-24T23:56:40;11.00;69.00
